Time;durP1;ratioP1;P1;durP2;ratioP2;P2;SDS_P1;SDS_P2;PMS_P1;PMS_P2;Temp;Humidity;BMP_temperature;BMP_pressure;BME280_temperature;BME280_humidity;BME280_pressure;Samples;Min_cycle;Max_cycle;Signal;HPM_P1;HPM_P2
2022/06/23 00:02:08;;;;;;;6.30;4.60;;;;;;;16.98;59.06;99860.80;106099;1270;108233;-72
2022/06/23 00:04:43;;;;;;;11.20;3.90;;;;;;;16.96;59.06;99861.66;106149;1271;97914;-71
2022/06/23 00:07:24;;;;;;;6.20;4.20;;;;;;;16.93;59.32;99859.68;106131;1270;138434;-71
2022/06/23 00:09:57;;;;;;;9.00;4.40;;;;;;;16.92;59.28;99860.47;106152;1271;113294;-71
2022/06/23 00:12:34;;;;;;;6.40;4.20;;;;;;;16.92;59.35;99858.55;105976;1271;139368;-71
2022/06/23 00:15:24;;;;;;;7.70;4.10;;;;;;;16.92;59.34;99866.08;106105;1271;107875;-69
2022/06/23 00:18:02;;;;;;;9.70;4.60;;;;;;;16.90;59.37;99861.43;107624;1270;140343;-70
2022/06/23 00:20:44;;;;;;;10.80;4.40;;;;;;;16.90;59.37;99858.82;106346;1270;97916;-72
2022/06/23 00:23:20;;;;;;;8.20;4.30;;;;;;;16.92;59.58;99858.38;106125;1270;111240;-70
2022/06/23 00:25:57;;;;;;;7.30;4.10;;;;;;;16.92;59.54;99861.35;106156;1272;109089;-70
2022/06/23 00:28:35;;;;;;;6.00;4.20;;;;;;;16.92;59.60;99867.14;106188;1270;108829;-72
2022/06/23 00:31:23;;;;;;;7.50;4.20;;;;;;;16.90;59.61;99868.29;106103;1271;139935;-70
2022/06/23 00:33:57;;;;;;;6.60;4.00;;;;;;;16.89;59.69;99867.70;106263;1270;97727;-71
2022/06/23 00:36:36;;;;;;;7.60;4.40;;;;;;;16.88;59.80;99869.30;106151;1270;138269;-71
2022/06/23 00:39:21;;;;;;;9.30;4.70;;;;;;;16.87;59.84;99868.30;106995;1269;107646;-69
2022/06/23 00:41:54;;;;;;;8.70;4.70;;;;;;;16.85;59.83;99869.14;106198;1270;138777;-69
2022/06/23 00:44:32;;;;;;;7.70;4.30;;;;;;;16.83;60.03;99871.89;106222;1271;98528;-69
2022/06/23 00:47:13;;;;;;;9.20;4.80;;;;;;;16.80;60.04;99881.38;106263;1270;97907;-70
2022/06/23 00:49:59;;;;;;;11.30;4.30;;;;;;;16.77;60.21;99881.63;106275;1270;112808;-71
2022/06/23 00:52:36;;;;;;;9.10;5.10;;;;;;;16.73;60.33;99878.87;107842;1270;107873;-71
2022/06/23 00:55:15;;;;;;;8.00;4.60;;;;;;;16.70;60.40;99875.90;107682;1270;138639;-70
2022/06/23 00:57:53;;;;;;;7.40;4.70;;;;;;;16.67;60.50;99875.04;107810;1270;95909;-70
2022/06/23 01:00:32;;;;;;;10.40;4.90;;;;;;;16.64;60.69;99873.77;106546;1271;138648;-69
2022/06/23 01:03:15;;;;;;;7.30;4.90;;;;;;;16.63;60.68;99874.02;106395;1270;112173;-69
2022/06/23 01:05:53;;;;;;;7.50;4.80;;;;;;;16.60;60.72;99872.80;106143;1271;139060;-69
2022/06/23 01:08:32;;;;;;;6.60;4.70;;;;;;;16.58;60.94;99875.40;106263;1270;108717;-68
2022/06/23 01:11:12;;;;;;;8.10;4.40;;;;;;;16.55;60.98;99873.32;106850;1271;97819;-69
2022/06/23 01:13:50;;;;;;;8.30;4.90;;;;;;;16.53;61.07;99869.41;106138;1271;97822;-69
2022/06/23 01:16:27;;;;;;;9.30;5.10;;;;;;;16.51;61.08;99867.58;107770;1270;112305;-71
2022/06/23 01:19:14;;;;;;;9.20;5.20;;;;;;;16.51;61.14;99863.76;107714;1270;138574;-70
2022/06/23 01:21:51;;;;;;;8.20;4.70;;;;;;;16.50;61.12;99867.30;107776;1270;108911;-71
2022/06/23 01:24:29;;;;;;;;;;;;;;;16.50;61.31;99866.80;107101;1270;138345;-70
2022/06/23 01:27:25;;;;;;;8.40;4.60;;;;;;;16.49;61.38;99873.37;106209;1270;97970;-70
2022/06/23 01:30:04;;;;;;;6.30;5.00;;;;;;;16.47;61.40;99873.82;106138;1270;138491;-70
2022/06/23 01:32:42;;;;;;;7.30;4.30;;;;;;;16.45;61.44;99878.48;107282;1270;108823;-70
2022/06/23 01:35:24;;;;;;;6.90;4.30;;;;;;;16.44;61.51;99877.53;106239;1270;108479;-70
2022/06/23 01:38:00;;;;;;;11.00;4.80;;;;;;;16.42;61.60;99882.55;106137;1270;99447;-70
2022/06/23 01:40:41;;;;;;;7.90;4.50;;;;;;;16.40;61.70;99882.33;106151;1270;97795;-70
2022/06/23 01:43:19;;;;;;;8.40;4.60;;;;;;;16.39;61.66;99886.27;107616;1271;138464;-70
2022/06/23 01:45:58;;;;;;;7.10;4.00;;;;;;;16.37;61.82;99885.54;107761;1270;107607;-70
2022/06/23 01:48:53;;;;;;;6.00;4.10;;;;;;;16.36;61.91;99888.39;107144;1270;139206;-69
2022/06/23 01:51:29;;;;;;;11.70;5.70;;;;;;;16.36;62.02;99886.45;106106;1270;98409;-69
2022/06/23 01:54:14;;;;;;;10.50;6.50;;;;;;;16.36;62.00;99887.52;106021;1270;140304;-70
2022/06/23 01:56:56;;;;;;;14.00;5.50;;;;;;;16.36;61.99;99889.98;106974;1271;112508;-71
2022/06/23 01:59:42;;;;;;;7.10;4.90;;;;;;;16.36;62.08;99890.52;106119;1271;138838;-69
2022/06/23 02:02:33;;;;;;;9.70;5.20;;;;;;;16.35;62.13;99892.34;106707;1270;108795;-69
2022/06/23 02:05:12;;;;;;;11.40;7.00;;;;;;;16.35;62.29;99889.87;107776;1271;96052;-70
2022/06/23 02:07:53;;;;;;;9.70;5.90;;;;;;;16.34;62.25;99892.01;107779;1270;96172;-70
2022/06/23 02:10:31;;;;;;;8.20;5.10;;;;;;;16.35;62.35;99891.10;107840;1270;112527;-70
2022/06/23 02:13:15;;;;;;;14.30;5.70;;;;;;;16.34;62.41;99891.65;107154;1270;138271;-68
2022/06/23 02:16:02;;;;;;;11.40;5.60;;;;;;;16.32;62.49;99889.45;106223;1270;108968;-69
2022/06/23 02:18:39;;;;;;;9.40;5.70;;;;;;;16.31;62.50;99892.50;106091;1271;139784;-69
2022/06/23 02:21:25;;;;;;;9.70;5.80;;;;;;;16.30;62.46;99889.79;106241;1270;97860;-70
2022/06/23 02:24:01;;;;;;;9.20;5.40;;;;;;;16.29;62.67;99893.17;107711;1270;138801;-68
2022/06/23 02:26:35;;;;;;;;;;;;;;;16.27;62.74;99897.15;107777;1271;109374;-70
2022/06/23 02:29:20;;;;;;;9.60;5.80;;;;;;;16.23;62.83;99895.98;107769;1270;109093;-71
2022/06/23 02:31:57;;;;;;;7.70;5.20;;;;;;;16.19;62.89;99896.44;107852;1270;95969;-71
2022/06/23 02:34:31;;;;;;;;;;;;;;;16.17;62.95;99901.14;107871;1270;95990;-69
2022/06/23 02:37:28;;;;;;;9.80;6.20;;;;;;;16.12;63.06;99901.04;107735;1270;124797;-69
2022/06/23 02:40:01;;;;;;;13.50;5.60;;;;;;;16.10;63.15;99901.39;107754;1270;108802;-67
2022/06/23 02:42:38;;;;;;;8.60;6.00;;;;;;;16.11;63.34;99901.33;107698;1270;139073;-69
2022/06/23 02:45:41;;;;;;;11.00;5.70;;;;;;;16.12;63.37;99903.35;107840;1270;96035;-69
2022/06/23 02:48:31;;;;;;;8.20;6.30;;;;;;;16.14;63.44;99908.63;107728;1270;139869;-69
2022/06/23 02:51:24;;;;;;;9.80;5.90;;;;;;;16.15;63.39;99913.83;107841;1270;112429;-69
2022/06/23 02:54:26;;;;;;;12.00;6.40;;;;;;;16.17;63.26;99912.52;107249;1270;139502;-70
2022/06/23 02:57:17;;;;;;;9.40;5.30;;;;;;;16.20;63.30;99917.04;107833;1270;108857;-69
2022/06/23 02:59:54;;;;;;;9.10;4.90;;;;;;;16.24;63.23;99918.73;107743;1270;139547;-70
2022/06/23 03:02:35;;;;;;;14.30;6.70;;;;;;;16.27;63.28;99920.28;107343;1270;97838;-70
2022/06/23 03:05:19;;;;;;;14.90;6.60;;;;;;;16.30;63.26;99918.33;106244;1270;112585;-70
2022/06/23 03:07:57;;;;;;;13.80;6.70;;;;;;;16.37;63.34;99920.81;107887;1270;108920;-70
2022/06/23 03:10:36;;;;;;;9.60;5.20;;;;;;;16.44;63.33;99925.05;107820;1270;109117;-70
2022/06/23 03:13:17;;;;;;;11.10;4.80;;;;;;;16.50;63.27;99925.95;106413;1270;137773;-70
2022/06/23 03:15:56;;;;;;;9.80;5.30;;;;;;;16.54;63.03;99927.63;106156;1273;97899;-69
2022/06/23 03:18:38;;;;;;;9.70;5.20;;;;;;;16.57;63.02;99926.52;106592;1271;137557;-69
2022/06/23 03:21:18;;;;;;;9.10;5.50;;;;;;;16.64;62.93;99934.69;106246;1270;108102;-70
2022/06/23 03:23:54;;;;;;;11.00;6.10;;;;;;;16.71;62.98;99939.55;107507;1270;138028;-70
2022/06/23 03:26:34;;;;;;;8.70;6.00;;;;;;;16.78;62.96;99942.29;107787;1271;96253;-70
2022/06/23 03:29:18;;;;;;;8.90;5.00;;;;;;;16.81;62.80;99946.85;107829;1270;96009;-70
2022/06/23 03:32:03;;;;;;;10.40;5.40;;;;;;;16.83;62.73;99940.20;107830;1270;112485;-71
2022/06/23 03:34:44;;;;;;;10.80;5.80;;;;;;;16.88;62.85;99940.75;107864;1270;107618;-70
2022/06/23 03:37:20;;;;;;;8.80;5.50;;;;;;;16.99;62.70;99940.10;107080;1270;139056;-69
2022/06/23 03:43:19;;;;;;;7.90;4.80;;;;;;;17.13;62.41;99941.27;107743;1270;138676;-70
2022/06/23 03:45:56;;;;;;;7.50;5.10;;;;;;;17.20;62.28;99945.60;107788;1271;112190;-70
2022/06/23 03:48:34;;;;;;;8.20;5.60;;;;;;;17.29;62.16;99946.30;107692;1270;138027;-69
2022/06/23 03:51:13;;;;;;;7.60;5.90;;;;;;;17.37;61.89;99943.56;107780;1270;108797;-70
2022/06/23 03:53:55;;;;;;;10.40;5.70;;;;;;;17.44;61.73;99948.95;107332;1271;137900;-70
2022/06/23 03:56:33;;;;;;;8.40;5.50;;;;;;;17.52;61.55;99949.66;106160;1271;97824;-69
2022/06/23 03:59:14;;;;;;;8.10;5.50;;;;;;;17.62;61.33;99955.19;107090;1270;111548;-70
2022/06/23 04:01:54;;;;;;;9.20;5.10;;;;;;;17.70;61.44;99954.66;106461;1270;107800;-71
2022/06/23 04:04:40;;;;;;;12.10;5.60;;;;;;;17.79;61.34;99955.66;106172;1271;108578;-70
2022/06/23 04:07:43;;;;;;;7.40;4.90;;;;;;;17.89;61.17;99956.58;106612;1270;138199;-70
2022/06/23 04:10:23;;;;;;;10.60;5.70;;;;;;;17.98;60.99;99963.36;107839;1270;95774;-70
2022/06/23 04:13:22;;;;;;;10.10;5.40;;;;;;;18.06;60.90;99966.98;107644;1269;137862;-69
2022/06/23 04:16:01;;;;;;;7.00;4.90;;;;;;;18.17;60.79;99969.10;106481;1270;108921;-73
2022/06/23 04:18:38;;;;;;;13.60;5.30;;;;;;;18.29;60.62;99974.59;107670;1271;138384;-70
2022/06/23 04:21:17;;;;;;;11.20;4.50;;;;;;;18.41;60.30;99978.50;107804;1270;96139;-70
2022/06/23 04:23:53;;;;;;;7.50;5.20;;;;;;;18.56;60.20;99978.41;107687;1270;138325;-70
2022/06/23 04:26:32;;;;;;;7.50;4.50;;;;;;;18.74;60.08;99981.70;107483;1270;110934;-69
2022/06/23 04:29:12;;;;;;;7.60;4.80;;;;;;;18.89;59.56;99985.39;107773;1271;108467;-70
2022/06/23 04:31:52;;;;;;;10.70;4.80;;;;;;;19.08;59.35;99986.89;107720;1270;138861;-70
2022/06/23 04:34:28;;;;;;;9.50;4.80;;;;;;;19.25;58.91;99987.25;107294;1270;95897;-70
2022/06/23 04:37:01;;;;;;;10.50;4.90;;;;;;;19.40;58.77;99994.11;107672;1270;138055;-69
2022/06/23 04:39:40;;;;;;;9.90;4.70;;;;;;;19.52;58.53;99997.77;107854;1270;112429;-70
2022/06/23 04:42:18;;;;;;;8.40;4.60;;;;;;;19.61;58.31;100002.79;107651;1270;138175;-70
2022/06/23 04:44:54;;;;;;;7.50;4.70;;;;;;;19.71;58.09;100002.23;107499;1270;108883;-70
2022/06/23 04:47:31;;;;;;;7.30;4.40;;;;;;;19.81;58.00;100002.67;106293;1271;139649;-69
2022/06/23 04:50:14;;;;;;;7.50;4.30;;;;;;;19.94;57.84;100013.77;107808;1270;96284;-72
2022/06/23 04:52:54;;;;;;;10.90;4.40;;;;;;;20.06;57.41;100016.37;107830;1269;112578;-69
2022/06/23 04:55:30;;;;;;;5.60;3.50;;;;;;;20.19;57.09;100013.66;107646;1271;138678;-69
2022/06/23 04:58:12;;;;;;;7.00;3.80;;;;;;;20.30;56.78;100020.95;107827;1270;109048;-70
2022/06/23 05:00:48;;;;;;;8.80;3.80;;;;;;;20.42;56.32;100024.56;107506;1270;301852;-69
2022/06/23 05:03:23;;;;;;;9.20;4.80;;;;;;;20.56;56.38;100027.60;107872;1270;95873;-70
2022/06/23 05:06:01;;;;;;;8.40;3.60;;;;;;;20.70;55.99;100038.03;107674;1270;138052;-71
2022/06/23 05:08:39;;;;;;;6.00;3.40;;;;;;;20.82;55.55;100042.71;106518;1271;108996;-71
2022/06/23 05:11:18;;;;;;;7.30;3.60;;;;;;;20.91;54.91;100040.04;106199;1271;108628;-71
2022/06/23 05:13:56;;;;;;;6.60;3.60;;;;;;;21.02;54.68;100044.84;107471;1270;96219;-70
2022/06/23 05:16:28;;;;;;;;;;;;;;;21.16;54.19;100044.26;106226;1271;97944;-71
2022/06/23 05:19:10;;;;;;;8.60;3.60;;;;;;;21.31;53.99;100043.95;106122;1271;124175;-71
2022/06/23 05:21:47;;;;;;;6.50;3.60;;;;;;;21.51;53.92;100048.02;106202;1271;107915;-72
2022/06/23 05:24:23;;;;;;;6.90;3.50;;;;;;;21.74;53.35;100049.83;106183;1270;137864;-72
2022/06/23 05:27:00;;;;;;;9.10;3.50;;;;;;;22.01;53.01;100049.27;106158;1270;98623;-70
2022/06/23 05:29:38;;;;;;;7.60;3.90;;;;;;;22.28;52.37;100050.70;106122;1271;137942;-71
2022/06/23 05:32:18;;;;;;;7.00;3.10;;;;;;;22.55;51.91;100054.45;106192;1270;112477;-71
2022/06/23 05:34:57;;;;;;;9.90;4.10;;;;;;;22.88;51.75;100057.30;106265;1270;108381;-70
2022/06/23 05:37:35;;;;;;;7.80;3.20;;;;;;;23.26;50.73;100055.38;106112;1271;138053;-69
2022/06/23 05:40:23;;;;;;;9.30;3.70;;;;;;;23.59;50.24;100056.77;106771;1270;97943;-70
2022/06/23 05:42:59;;;;;;;6.00;3.10;;;;;;;24.04;50.02;100061.74;107714;1270;137905;-71
2022/06/23 05:45:40;;;;;;;7.10;3.10;;;;;;;24.40;49.03;100061.25;107772;1271;112736;-70
2022/06/23 05:48:18;;;;;;;8.30;3.20;;;;;;;24.68;48.15;100060.05;107705;1270;137821;-71
2022/06/23 05:50:53;;;;;;;7.40;3.10;;;;;;;25.01;47.99;100054.29;107801;1270;108777;-70
2022/06/23 05:53:30;;;;;;;6.60;3.30;;;;;;;25.33;47.69;100055.59;107690;1270;138027;-71
2022/06/23 05:56:09;;;;;;;9.90;2.80;;;;;;;25.83;47.45;100048.47;107001;1270;96538;-70
2022/06/23 05:58:49;;;;;;;4.60;2.60;;;;;;;26.38;46.20;100050.75;106273;1271;112653;-70
2022/06/23 06:01:31;;;;;;;9.50;2.90;;;;;;;27.01;45.34;100058.19;106266;1271;138215;-70
2022/06/23 06:04:07;;;;;;;7.70;2.60;;;;;;;28.06;44.07;100056.14;106369;1271;108456;-69
2022/06/23 06:06:40;;;;;;;7.40;2.70;;;;;;;29.54;42.23;100057.90;106142;1270;137918;-70
2022/06/23 06:12:13;;;;;;;8.00;2.20;;;;;;;32.92;38.52;100053.09;106030;1271;137720;-73
2022/06/23 06:14:48;;;;;;;6.80;2.50;;;;;;;34.47;36.40;100051.59;107807;1271;107769;-70
2022/06/23 06:17:24;;;;;;;6.00;2.20;;;;;;;35.71;34.57;100053.33;107637;1271;139626;-70
2022/06/23 06:20:00;;;;;;;10.90;2.80;;;;;;;36.75;33.01;100055.35;107768;1271;96188;-71
2022/06/23 06:22:47;;;;;;;7.10;2.50;;;;;;;37.82;31.71;100056.73;107780;1271;96334;-82
2022/06/23 06:25:25;;;;;;;8.10;3.10;;;;;;;38.80;30.24;100056.43;107688;1271;137675;-62
2022/06/23 06:28:01;;;;;;;5.70;2.40;;;;;;;39.93;28.82;100060.35;107823;1271;108803;-62
2022/06/23 06:30:37;;;;;;;7.00;2.20;;;;;;;41.05;27.55;100060.12;107680;1271;137796;-63
2022/06/23 06:33:27;;;;;;;5.40;1.90;;;;;;;41.99;26.22;100056.70;107829;1270;96021;-62
2022/06/23 06:35:59;;;;;;;4.40;1.90;;;;;;;42.75;24.65;100061.08;107700;1270;138347;-62
2022/06/23 06:38:33;;;;;;;5.20;2.00;;;;;;;43.01;24.00;100065.36;107774;1271;112882;-64
2022/06/23 06:41:05;;;;;;;4.90;1.80;;;;;;;43.55;23.24;100071.41;107768;1271;109507;-64
2022/06/23 06:43:38;;;;;;;5.40;2.00;;;;;;;43.96;22.86;100071.67;107706;1271;138340;-64
2022/06/23 06:46:10;;;;;;;5.10;2.10;;;;;;;44.46;22.37;100075.88;107751;1271;96399;-63
2022/06/23 06:48:43;;;;;;;5.00;2.00;;;;;;;44.93;20.89;100075.42;107714;1271;138049;-63
2022/06/23 06:51:22;;;;;;;4.80;1.90;;;;;;;45.12;20.03;100079.86;107801;1271;112532;-63
2022/06/23 06:53:58;;;;;;;4.70;2.00;;;;;;;45.30;19.75;100081.80;107693;1270;138597;-63
2022/06/23 06:56:36;;;;;;;7.10;1.90;;;;;;;45.38;19.33;100086.60;106469;1271;110808;-62
2022/06/23 06:59:16;;;;;;;5.40;1.90;;;;;;;45.48;19.67;100085.46;106197;1271;97823;-62
2022/06/23 07:01:57;;;;;;;5.20;1.80;;;;;;;45.55;19.38;100085.09;106238;1271;98003;-63
2022/06/23 07:04:34;;;;;;;4.20;1.30;;;;;;;45.60;19.12;100086.48;107783;1271;112493;-62
2022/06/23 07:07:14;;;;;;;2.90;1.80;;;;;;;45.67;18.51;100089.08;106784;1271;137849;-61
2022/06/23 07:09:54;;;;;;;4.20;1.50;;;;;;;45.94;18.39;100090.71;106163;1271;108888;-62
2022/06/23 07:12:30;;;;;;;6.90;2.10;;;;;;;46.21;17.53;100090.80;106075;1271;137989;-61
2022/06/23 07:15:11;;;;;;;4.70;1.50;;;;;;;46.17;17.54;100090.72;107792;1271;96984;-62
2022/06/23 07:17:48;;;;;;;4.90;1.70;;;;;;;46.28;17.54;100101.30;107599;1271;137989;-62
2022/06/23 07:20:25;;;;;;;2.60;1.70;;;;;;;46.36;17.13;100104.23;107781;1271;107643;-62
2022/06/23 07:23:03;;;;;;;4.90;1.70;;;;;;;46.33;16.98;100104.20;107752;1271;107681;-62
2022/06/23 07:25:42;;;;;;;4.60;1.60;;;;;;;46.36;16.74;100103.69;106660;1271;137682;-62
2022/06/23 07:28:19;;;;;;;5.60;1.60;;;;;;;46.34;16.76;100107.55;107764;1271;95860;-63
2022/06/23 07:30:55;;;;;;;5.00;3.70;;;;;;;46.40;16.63;100104.49;107688;1270;138586;-62
2022/06/23 07:33:36;;;;;;;5.40;2.20;;;;;;;46.33;16.62;100100.95;106700;1270;108987;-61
2022/06/23 07:36:14;;;;;;;5.40;1.90;;;;;;;46.40;16.59;100102.06;106089;1270;137942;-62
2022/06/23 07:38:50;;;;;;;5.90;1.60;;;;;;;46.40;16.26;100103.16;106225;1271;97960;-62
2022/06/23 07:41:30;;;;;;;2.90;1.60;;;;;;;46.21;15.85;100105.46;107673;1270;138327;-62
2022/06/23 07:44:07;;;;;;;3.30;1.60;;;;;;;46.21;16.10;100108.77;106922;1270;112567;-62
2022/06/23 07:46:40;;;;;;;4.70;1.60;;;;;;;45.57;16.36;100113.63;106588;1271;107877;-62
2022/06/23 07:49:13;;;;;;;4.70;1.60;;;;;;;45.38;16.24;100109.29;107026;1271;139667;-62
2022/06/23 07:51:47;;;;;;;6.80;1.80;;;;;;;45.29;15.97;100108.90;106191;1271;97849;-63
2022/06/23 07:54:22;;;;;;;3.10;1.60;;;;;;;45.18;16.37;100112.71;106113;1270;138110;-64
2022/06/23 07:56:55;;;;;;;5.90;1.60;;;;;;;45.19;16.24;100108.91;107812;1270;112491;-64
2022/06/23 07:59:31;;;;;;;5.40;1.80;;;;;;;45.24;16.42;100109.00;107712;1270;139772;-63
2022/06/23 08:02:08;;;;;;;5.20;2.10;;;;;;;45.20;16.13;100112.14;107757;1271;109292;-62
2022/06/23 08:04:53;;;;;;;7.10;2.10;;;;;;;45.19;16.32;100112.82;107827;1270;96258;-63
2022/06/23 08:07:26;;;;;;;3.30;1.70;;;;;;;45.17;15.96;100116.84;107723;1270;137720;-63
2022/06/23 08:10:02;;;;;;;4.80;1.90;;;;;;;45.10;16.22;100111.21;107793;1270;112473;-63
2022/06/23 08:12:56;;;;;;;5.50;2.20;;;;;;;45.18;16.23;100102.08;107653;1270;137989;-64
2022/06/23 08:18:37;;;;;;;3.70;1.50;;;;;;;45.07;16.08;100100.42;106101;1270;138940;-63
2022/06/23 08:21:14;;;;;;;6.20;1.80;;;;;;;45.05;16.22;100100.27;106233;1270;97819;-64
2022/06/23 08:23:50;;;;;;;4.80;2.20;;;;;;;45.22;15.96;100098.39;106105;1270;137863;-64
2022/06/23 08:26:24;;;;;;;7.30;2.00;;;;;;;45.34;16.25;100103.92;106182;1271;108899;-62
2022/06/23 08:29:01;;;;;;;4.20;2.10;;;;;;;45.32;16.24;100103.98;106041;1273;109079;-62
2022/06/23 08:31:34;;;;;;;4.90;1.80;;;;;;;45.05;15.91;100098.84;105993;1271;137829;-63
2022/06/23 08:34:27;;;;;;;7.70;2.60;;;;;;;43.80;16.16;100097.62;107718;1273;96086;-61
2022/06/23 08:37:04;;;;;;;12.70;4.20;;;;;;;42.66;16.33;100101.27;107534;1273;138086;-62
2022/06/23 08:39:43;;;;;;;8.20;2.20;;;;;;;41.59;17.15;100108.93;107179;1273;108856;-64
2022/06/23 08:42:22;;;;;;;4.10;2.00;;;;;;;40.76;17.32;100104.77;107588;1273;138088;-63
2022/06/23 08:45:04;;;;;;;6.90;2.50;;;;;;;39.49;17.93;100103.75;107693;1273;96107;-63
2022/06/23 08:47:49;;;;;;;4.30;2.00;;;;;;;38.03;18.79;100116.61;107606;1273;137956;-62
2022/06/23 08:50:30;;;;;;;5.50;2.20;;;;;;;36.93;19.47;100122.52;107749;1272;112194;-63
2022/06/23 08:53:06;;;;;;;4.30;2.30;;;;;;;36.01;20.42;100124.35;107706;1271;109289;-63
2022/06/23 08:55:47;;;;;;;5.00;2.00;;;;;;;35.48;21.30;100120.71;106306;1273;138482;-63
2022/06/23 08:58:34;;;;;;;4.20;1.80;;;;;;;35.68;21.97;100119.21;106119;1273;97857;-63
2022/06/23 09:01:13;;;;;;;3.10;1.50;;;;;;;35.47;21.71;100119.17;106056;1273;137813;-63
2022/06/23 09:03:52;;;;;;;2.40;1.70;;;;;;;35.55;22.38;100116.89;106501;1273;112350;-63
2022/06/23 09:06:35;;;;;;;5.20;2.00;;;;;;;36.07;22.63;100116.48;107576;1273;138106;-63
2022/06/23 09:09:23;;;;;;;2.40;1.60;;;;;;;36.65;21.92;100113.61;106154;1273;108780;-64
2022/06/23 09:12:06;;;;;;;4.90;2.00;;;;;;;36.73;21.41;100110.54;106049;1273;138151;-63
2022/06/23 09:14:59;;;;;;;2.70;1.80;;;;;;;36.63;21.53;100108.69;106169;1273;97839;-64
2022/06/23 09:17:54;;;;;;;3.60;1.50;;;;;;;36.91;21.59;100113.17;106375;1273;137966;-63
2022/06/23 09:20:46;;;;;;;4.60;1.90;;;;;;;37.31;21.13;100112.98;106125;1273;107277;-62
2022/06/23 09:23:57;;;;;;;8.90;1.90;;;;;;;37.01;21.02;100119.86;107557;1273;138336;-64
2022/06/23 09:26:39;;;;;;;3.50;1.50;;;;;;;37.23;21.59;100119.50;106346;1272;97872;-63
2022/06/23 09:29:23;;;;;;;5.90;1.80;;;;;;;37.37;21.03;100120.75;106421;1273;97816;-63
2022/06/23 09:32:00;;;;;;;3.50;1.80;;;;;;;37.42;21.21;100128.22;107263;1271;112446;-63
2022/06/23 09:34:46;;;;;;;2.50;1.60;;;;;;;37.75;21.04;100133.92;107018;1273;110287;-62
2022/06/23 09:37:42;;;;;;;4.80;1.90;;;;;;;37.98;20.65;100135.10;105932;1273;137892;-63
2022/06/23 09:40:26;;;;;;;;;;;;;;;37.45;20.31;100135.86;106674;1273;97870;-63
2022/06/23 09:43:28;;;;;;;4.40;1.80;;;;;;;36.85;20.80;100133.75;107590;1273;124377;-63
2022/06/23 09:46:23;;;;;;;6.40;1.80;;;;;;;36.95;21.42;100136.93;107717;1271;112704;-64
2022/06/23 09:49:09;;;;;;;4.50;1.90;;;;;;;36.69;21.02;100134.73;107501;1273;138525;-61
2022/06/23 09:52:04;;;;;;;2.80;1.40;;;;;;;35.95;21.28;100135.27;106175;1273;108932;-61
2022/06/23 09:55:00;;;;;;;4.70;1.80;;;;;;;35.43;21.75;100136.55;106025;1272;138071;-62
2022/06/23 09:57:59;;;;;;;6.70;2.30;;;;;;;34.97;22.35;100136.99;106354;1272;97916;-61
2022/06/23 10:00:41;;;;;;;5.90;2.70;;;;;;;34.70;22.81;100132.80;106029;1271;137790;-62
2022/06/23 10:03:30;;;;;;;7.30;2.40;;;;;;;34.94;23.28;100129.98;106637;1272;108436;-61
2022/06/23 10:06:22;;;;;;;3.00;1.80;;;;;;;35.26;22.80;100126.67;107526;1273;137963;-61
2022/06/23 10:09:03;;;;;;;7.60;1.80;;;;;;;35.42;22.50;100124.42;107600;1273;96132;-61
2022/06/23 10:11:46;;;;;;;5.80;2.30;;;;;;;35.65;22.22;100129.61;107652;1272;138106;-62
2022/06/23 10:14:33;;;;;;;6.70;2.20;;;;;;;35.80;22.10;100131.71;107746;1273;112435;-62
2022/06/23 10:17:22;;;;;;;5.10;2.60;;;;;;;35.76;21.76;100130.24;107675;1273;108994;-62
2022/06/23 10:20:20;;;;;;;6.10;2.50;;;;;;;35.82;21.89;100127.34;107641;1273;107869;-62
2022/06/23 10:23:18;;;;;;;7.00;2.10;;;;;;;35.97;22.04;100123.60;107617;1272;96176;-62
2022/06/23 10:26:03;;;;;;;3.90;2.20;;;;;;;35.86;21.70;100124.85;107125;1273;96436;-60
2022/06/23 10:28:57;;;;;;;4.40;2.80;;;;;;;35.53;22.01;100127.04;106124;1273;113093;-62
2022/06/23 10:31:43;;;;;;;5.40;2.30;;;;;;;35.29;22.11;100127.97;107318;1271;137906;-62
2022/06/23 10:34:39;;;;;;;5.00;2.00;;;;;;;35.09;22.08;100128.81;107732;1271;108833;-61
2022/06/23 10:37:29;;;;;;;4.00;1.90;;;;;;;35.02;22.14;100132.29;107617;1272;138215;-61
2022/06/23 10:40:27;;;;;;;3.60;1.80;;;;;;;34.86;22.06;100128.73;107246;1273;97705;-61
2022/06/23 10:43:41;;;;;;;6.70;2.10;;;;;;;34.42;22.52;100135.52;107619;1271;138111;-62
2022/06/23 10:46:20;;;;;;;4.60;2.10;;;;;;;34.41;22.75;100136.06;107729;1273;108922;-63
2022/06/23 10:49:30;;;;;;;4.20;1.70;;;;;;;34.57;22.86;100135.70;107519;1273;137808;-62
2022/06/23 10:52:29;;;;;;;3.00;2.10;;;;;;;34.43;22.37;100134.70;107658;1273;96317;-61
2022/06/23 10:55:23;;;;;;;5.20;1.60;;;;;;;34.40;22.56;100134.60;107560;1273;137883;-61
2022/06/23 10:58:24;;;;;;;4.00;1.60;;;;;;;34.37;22.68;100133.19;107679;1273;112395;-61
2022/06/23 11:01:06;;;;;;;3.20;1.70;;;;;;;34.27;22.81;100130.48;107658;1272;137846;-61
2022/06/23 11:04:06;;;;;;;13.50;4.80;;;;;;;34.19;22.52;100131.55;107688;1271;108865;-61
2022/06/23 11:06:55;;;;;;;7.60;2.10;;;;;;;34.07;22.29;100128.86;107492;1273;138021;-62
2022/06/23 11:09:43;;;;;;;7.30;1.90;;;;;;;33.67;22.32;100131.66;107755;1272;96099;-61
2022/06/23 11:12:29;;;;;;;5.60;1.90;;;;;;;32.97;22.93;100131.66;107636;1271;139761;-62
2022/06/23 11:15:20;;;;;;;6.80;2.10;;;;;;;32.71;23.07;100130.42;107623;1272;109248;-62
2022/06/23 11:18:16;;;;;;;3.50;1.90;;;;;;;32.28;23.39;100129.76;107611;1272;138535;-60
2022/06/23 11:21:01;;;;;;;7.10;2.90;;;;;;;31.69;23.83;100142.09;107158;1272;96688;-61
2022/06/23 11:23:41;;;;;;;12.90;5.30;;;;;;;31.28;24.24;100136.15;107590;1272;139701;-61
2022/06/23 11:26:24;;;;;;;20.50;8.10;;;;;;;30.91;24.70;100135.56;107734;1272;112483;-62
2022/06/23 11:29:19;;;;;;;8.40;3.00;;;;;;;30.64;25.23;100139.89;107715;1272;108989;-63
2022/06/23 11:32:00;;;;;;;4.40;2.20;;;;;;;30.66;25.62;100139.27;107323;1273;109040;-61
2022/06/23 11:34:51;;;;;;;7.30;2.20;;;;;;;30.67;25.53;100139.94;107257;1271;97730;-61
2022/06/23 11:37:40;;;;;;;9.20;1.80;;;;;;;30.43;25.68;100135.23;106633;1271;137671;-60
2022/06/23 11:40:31;;;;;;;2.90;1.60;;;;;;;30.10;25.92;100137.27;106346;1273;111942;-60
2022/06/23 11:43:18;;;;;;;2.00;1.70;;;;;;;29.83;26.60;100136.95;106050;1273;138217;-61
2022/06/23 11:46:09;;;;;;;6.40;1.60;;;;;;;29.86;26.73;100133.07;107633;1273;109248;-61
2022/06/23 11:49:09;;;;;;;8.90;1.70;;;;;;;29.97;26.89;100140.55;107545;1272;137861;-62
2022/06/23 11:52:01;;;;;;;3.10;2.00;;;;;;;30.10;26.76;100136.03;107741;1273;96111;-62
2022/06/23 11:54:48;;;;;;;3.10;1.60;;;;;;;30.23;26.62;100136.83;107584;1273;138286;-62
2022/06/23 11:57:38;;;;;;;3.00;1.40;;;;;;;30.29;26.57;100136.44;107792;1272;108965;-62
2022/06/23 12:00:13;;;;;;;4.90;1.80;;;;;;;30.17;26.18;100132.66;107602;1272;138348;-62
2022/06/23 12:03:19;;;;;;;2.90;1.70;;;;;;;29.95;26.35;100130.80;107663;1272;96017;-62
2022/06/23 12:06:10;;;;;;;2.60;1.60;;;;;;;29.72;26.35;100139.89;107212;1272;139785;-62
2022/06/23 12:08:57;;;;;;;3.70;1.60;;;;;;;29.57;26.46;100137.00;107781;1273;112498;-62
2022/06/23 12:11:32;;;;;;;2.80;1.60;;;;;;;29.62;26.91;100140.81;107625;1272;139630;-61
2022/06/23 12:14:07;;;;;;;2.60;1.30;;;;;;;29.68;26.43;100141.06;107697;1273;108692;-62
2022/06/23 12:16:54;;;;;;;4.00;1.60;;;;;;;29.74;26.66;100131.04;107582;1272;97857;-62
2022/06/23 12:19:35;;;;;;;5.00;1.50;;;;;;;29.82;26.38;100131.50;107539;1273;137557;-62
2022/06/23 12:22:19;;;;;;;4.40;1.50;;;;;;;29.88;26.28;100134.80;107516;1272;111915;-60
2022/06/23 12:25:03;;;;;;;2.80;1.70;;;;;;;29.92;25.74;100127.38;106720;1273;138096;-61
2022/06/23 12:27:42;;;;;;;3.20;1.70;;;;;;;29.98;26.10;100127.55;106709;1273;107547;-60
2022/06/23 12:30:17;;;;;;;2.80;1.50;;;;;;;30.00;26.24;100126.02;107246;1272;137966;-63
2022/06/23 12:32:54;;;;;;;3.20;1.50;;;;;;;29.99;26.28;100125.94;106574;1273;97845;-61